sensor_id;sensor_type;location;lat;lon;timestamp;P1;durP1;ratioP1;P2;durP2;ratioP2
52023;SDS011;38038;45.922;13.604;2023-05-07T00:01:27;26.48;;;25.05;;
52023;SDS011;38038;45.922;13.604;2023-05-07T00:03:53;23.25;;;22.05;;
52023;SDS011;38038;45.922;13.604;2023-05-07T00:06:19;18.42;;;17.23;;
52023;SDS011;38038;45.922;13.604;2023-05-07T00:08:45;18.23;;;17.02;;
52023;SDS011;38038;45.922;13.604;2023-05-07T00:11:10;23.55;;;22.25;;
52023;SDS011;38038;45.922;13.604;2023-05-07T00:13:36;22.20;;;20.90;;
52023;SDS011;38038;45.922;13.604;2023-05-07T00:16:02;28.23;;;26.65;;
52023;SDS011;38038;45.922;13.604;2023-05-07T00:18:28;27.70;;;26.20;;
52023;SDS011;38038;45.922;13.604;2023-05-07T00:20:54;21.42;;;20.08;;
52023;SDS011;38038;45.922;13.604;2023-05-07T00:23:20;19.02;;;17.73;;
52023;SDS011;38038;45.922;13.604;2023-05-07T00:25:45;15.90;;;14.90;;
52023;SDS011;38038;45.922;13.604;2023-05-07T00:28:11;16.88;;;15.98;;
52023;SDS011;38038;45.922;13.604;2023-05-07T00:30:37;19.90;;;18.60;;
52023;SDS011;38038;45.922;13.604;2023-05-07T00:33:02;19.08;;;17.98;;
52023;SDS011;38038;45.922;13.604;2023-05-07T00:35:28;18.20;;;17.20;;
52023;SDS011;38038;45.922;13.604;2023-05-07T00:37:54;17.75;;;16.75;;
52023;SDS011;38038;45.922;13.604;2023-05-07T00:40:20;17.52;;;16.55;;
52023;SDS011;38038;45.922;13.604;2023-05-07T00:42:46;16.98;;;15.98;;
52023;SDS011;38038;45.922;13.604;2023-05-07T00:45:14;17.70;;;16.67;;
52023;SDS011;38038;45.922;13.604;2023-05-07T00:47:40;19.38;;;18.27;;
52023;SDS011;38038;45.922;13.604;2023-05-07T00:50:07;19.33;;;18.25;;
52023;SDS011;38038;45.922;13.604;2023-05-07T00:52:34;17.20;;;16.20;;
52023;SDS011;38038;45.922;13.604;2023-05-07T00:55:05;17.23;;;16.33;;
52023;SDS011;38038;45.922;13.604;2023-05-07T00:57:37;19.52;;;18.42;;
52023;SDS011;38038;45.922;13.604;2023-05-07T01:00:06;18.38;;;17.33;;
52023;SDS011;38038;45.922;13.604;2023-05-07T01:02:33;18.10;;;17.13;;
52023;SDS011;38038;45.922;13.604;2023-05-07T01:05:00;16.83;;;15.93;;
52023;SDS011;38038;45.922;13.604;2023-05-07T01:07:27;16.50;;;15.50;;
52023;SDS011;38038;45.922;13.604;2023-05-07T01:09:53;16.10;;;15.20;;
52023;SDS011;38038;45.922;13.604;2023-05-07T01:12:19;16.55;;;15.60;;
52023;SDS011;38038;45.922;13.604;2023-05-07T01:14:45;12.80;;;12.07;;
52023;SDS011;38038;45.922;13.604;2023-05-07T01:17:11;16.83;;;15.85;;
52023;SDS011;38038;45.922;13.604;2023-05-07T01:19:36;14.50;;;13.55;;
52023;SDS011;38038;45.922;13.604;2023-05-07T01:22:04;14.05;;;13.07;;
52023;SDS011;38038;45.922;13.604;2023-05-07T01:24:33;14.95;;;14.05;;
52023;SDS011;38038;45.922;13.604;2023-05-07T01:27:00;16.63;;;15.73;;
52023;SDS011;38038;45.922;13.604;2023-05-07T01:29:26;16.73;;;15.60;;
52023;SDS011;38038;45.922;13.604;2023-05-07T01:31:53;24.63;;;22.95;;
52023;SDS011;38038;45.922;13.604;2023-05-07T01:34:19;20.52;;;19.33;;
52023;SDS011;38038;45.922;13.604;2023-05-07T01:36:47;17.38;;;16.38;;
52023;SDS011;38038;45.922;13.604;2023-05-07T01:39:13;16.95;;;15.95;;
52023;SDS011;38038;45.922;13.604;2023-05-07T01:41:40;16.55;;;15.65;;
52023;SDS011;38038;45.922;13.604;2023-05-07T01:44:08;16.05;;;15.15;;
52023;SDS011;38038;45.922;13.604;2023-05-07T01:46:37;16.60;;;15.60;;
52023;SDS011;38038;45.922;13.604;2023-05-07T01:49:03;16.13;;;15.23;;
52023;SDS011;38038;45.922;13.604;2023-05-07T01:51:29;15.20;;;14.40;;
52023;SDS011;38038;45.922;13.604;2023-05-07T01:53:55;15.43;;;14.32;;
52023;SDS011;38038;45.922;13.604;2023-05-07T01:56:21;17.80;;;16.80;;
52023;SDS011;38038;45.922;13.604;2023-05-07T01:58:47;19.23;;;18.17;;
52023;SDS011;38038;45.922;13.604;2023-05-07T02:01:13;15.77;;;14.93;;
52023;SDS011;38038;45.922;13.604;2023-05-07T02:03:39;17.17;;;16.17;;
52023;SDS011;38038;45.922;13.604;2023-05-07T02:06:05;14.35;;;13.55;;
52023;SDS011;38038;45.922;13.604;2023-05-07T02:08:31;12.90;;;12.20;;
52023;SDS011;38038;45.922;13.604;2023-05-07T02:10:56;13.73;;;12.93;;
52023;SDS011;38038;45.922;13.604;2023-05-07T02:13:22;14.07;;;13.27;;
52023;SDS011;38038;45.922;13.604;2023-05-07T02:15:49;12.80;;;12.00;;
52023;SDS011;38038;45.922;13.604;2023-05-07T02:18:16;13.43;;;12.63;;
52023;SDS011;38038;45.922;13.604;2023-05-07T02:20:42;14.90;;;14.00;;
52023;SDS011;38038;45.922;13.604;2023-05-07T02:23:08;14.52;;;13.63;;
52023;SDS011;38038;45.922;13.604;2023-05-07T02:25:33;14.25;;;13.38;;
52023;SDS011;38038;45.922;13.604;2023-05-07T02:27:59;15.50;;;14.55;;
52023;SDS011;38038;45.922;13.604;2023-05-07T02:53:56;21.13;;;19.92;;
52023;SDS011;38038;45.922;13.604;2023-05-07T02:56:22;18.13;;;17.08;;
52023;SDS011;38038;45.922;13.604;2023-05-07T02:58:48;15.60;;;14.50;;
52023;SDS011;38038;45.922;13.604;2023-05-07T03:01:13;14.32;;;12.95;;
52023;SDS011;38038;45.922;13.604;2023-05-07T03:03:39;14.90;;;14.00;;
52023;SDS011;38038;45.922;13.604;2023-05-07T03:06:05;15.68;;;14.77;;
52023;SDS011;38038;45.922;13.604;2023-05-07T03:08:32;15.20;;;14.40;;
52023;SDS011;38038;45.922;13.604;2023-05-07T03:10:57;15.07;;;14.20;;
52023;SDS011;38038;45.922;13.604;2023-05-07T03:13:23;15.60;;;14.75;;
52023;SDS011;38038;45.922;13.604;2023-05-07T03:15:49;14.60;;;13.75;;
52023;SDS011;38038;45.922;13.604;2023-05-07T03:18:15;14.32;;;13.52;;
52023;SDS011;38038;45.922;13.604;2023-05-07T03:20:40;13.82;;;13.02;;
52023;SDS011;38038;45.922;13.604;2023-05-07T03:23:06;14.15;;;13.35;;
52023;SDS011;38038;45.922;13.604;2023-05-07T03:25:32;15.02;;;14.00;;
52023;SDS011;38038;45.922;13.604;2023-05-07T03:27:57;16.15;;;15.25;;
52023;SDS011;38038;45.922;13.604;2023-05-07T03:30:23;20.65;;;19.40;;
52023;SDS011;38038;45.922;13.604;2023-05-07T03:32:49;19.92;;;18.80;;
52023;SDS011;38038;45.922;13.604;2023-05-07T03:35:15;17.50;;;16.50;;
52023;SDS011;38038;45.922;13.604;2023-05-07T03:37:40;20.57;;;19.47;;
52023;SDS011;38038;45.922;13.604;2023-05-07T03:40:06;15.52;;;14.63;;
52023;SDS011;38038;45.922;13.604;2023-05-07T03:42:35;16.57;;;15.67;;
52023;SDS011;38038;45.922;13.604;2023-05-07T03:45:00;22.73;;;21.53;;
52023;SDS011;38038;45.922;13.604;2023-05-07T03:47:26;26.30;;;25.00;;
52023;SDS011;38038;45.922;13.604;2023-05-07T03:49:52;40.27;;;38.27;;
52023;SDS011;38038;45.922;13.604;2023-05-07T03:52:18;37.97;;;36.10;;
52023;SDS011;38038;45.922;13.604;2023-05-07T03:54:48;53.53;;;50.93;;
52023;SDS011;38038;45.922;13.604;2023-05-07T03:57:14;43.87;;;41.60;;
52023;SDS011;38038;45.922;13.604;2023-05-07T03:59:40;22.20;;;21.00;;
52023;SDS011;38038;45.922;13.604;2023-05-07T04:02:06;18.48;;;17.40;;
52023;SDS011;38038;45.922;13.604;2023-05-07T04:04:31;20.57;;;19.43;;
52023;SDS011;38038;45.922;13.604;2023-05-07T04:06:57;25.13;;;23.57;;
52023;SDS011;38038;45.922;13.604;2023-05-07T04:09:24;16.30;;;15.40;;
52023;SDS011;38038;45.922;13.604;2023-05-07T04:11:50;15.50;;;14.63;;
52023;SDS011;38038;45.922;13.604;2023-05-07T04:14:16;16.83;;;15.93;;
52023;SDS011;38038;45.922;13.604;2023-05-07T04:16:42;13.80;;;13.00;;
52023;SDS011;38038;45.922;13.604;2023-05-07T04:19:07;13.32;;;12.52;;
52023;SDS011;38038;45.922;13.604;2023-05-07T04:21:33;13.50;;;12.70;;
52023;SDS011;38038;45.922;13.604;2023-05-07T04:23:59;13.77;;;13.05;;
52023;SDS011;38038;45.922;13.604;2023-05-07T04:26:24;14.00;;;13.30;;
52023;SDS011;38038;45.922;13.604;2023-05-07T04:28:50;13.73;;;13.02;;
52023;SDS011;38038;45.922;13.604;2023-05-07T04:31:16;20.52;;;19.45;;
52023;SDS011;38038;45.922;13.604;2023-05-07T04:33:41;12.00;;;11.30;;
52023;SDS011;38038;45.922;13.604;2023-05-07T04:36:07;13.32;;;12.60;;
52023;SDS011;38038;45.922;13.604;2023-05-07T04:38:33;12.02;;;11.35;;
52023;SDS011;38038;45.922;13.604;2023-05-07T04:41:05;12.20;;;11.50;;
52023;SDS011;38038;45.922;13.604;2023-05-07T04:43:31;11.75;;;11.15;;
52023;SDS011;38038;45.922;13.604;2023-05-07T04:45:57;12.13;;;11.05;;
52023;SDS011;38038;45.922;13.604;2023-05-07T04:48:22;11.73;;;10.90;;
52023;SDS011;38038;45.922;13.604;2023-05-07T04:50:49;12.15;;;11.45;;
52023;SDS011;38038;45.922;13.604;2023-05-07T04:53:15;11.82;;;11.13;;
52023;SDS011;38038;45.922;13.604;2023-05-07T04:55:42;12.18;;;11.48;;
52023;SDS011;38038;45.922;13.604;2023-05-07T04:58:08;13.00;;;12.20;;
52023;SDS011;38038;45.922;13.604;2023-05-07T05:00:34;10.80;;;10.20;;
52023;SDS011;38038;45.922;13.604;2023-05-07T05:03:00;12.85;;;12.13;;
52023;SDS011;38038;45.922;13.604;2023-05-07T05:05:25;12.10;;;11.23;;
52023;SDS011;38038;45.922;13.604;2023-05-07T05:07:51;11.23;;;10.52;;
52023;SDS011;38038;45.922;13.604;2023-05-07T05:10:17;12.65;;;11.85;;
52023;SDS011;38038;45.922;13.604;2023-05-07T05:12:43;11.55;;;10.75;;
52023;SDS011;38038;45.922;13.604;2023-05-07T05:15:10;11.40;;;10.80;;
52023;SDS011;38038;45.922;13.604;2023-05-07T05:17:37;11.50;;;10.80;;
52023;SDS011;38038;45.922;13.604;2023-05-07T05:20:03;12.65;;;11.85;;
52023;SDS011;38038;45.922;13.604;2023-05-07T05:22:30;12.68;;;11.98;;
52023;SDS011;38038;45.922;13.604;2023-05-07T05:24:56;12.13;;;11.50;;
52023;SDS011;38038;45.922;13.604;2023-05-07T05:27:22;12.32;;;11.63;;
52023;SDS011;38038;45.922;13.604;2023-05-07T05:29:48;10.95;;;10.35;;
52023;SDS011;38038;45.922;13.604;2023-05-07T05:32:13;12.40;;;11.68;;
52023;SDS011;38038;45.922;13.604;2023-05-07T05:34:39;12.20;;;11.50;;
52023;SDS011;38038;45.922;13.604;2023-05-07T05:37:05;13.93;;;13.05;;
52023;SDS011;38038;45.922;13.604;2023-05-07T05:39:30;13.55;;;12.63;;
52023;SDS011;38038;45.922;13.604;2023-05-07T05:41:56;13.40;;;12.60;;
52023;SDS011;38038;45.922;13.604;2023-05-07T05:44:22;12.48;;;11.60;;
52023;SDS011;38038;45.922;13.604;2023-05-07T05:46:47;11.90;;;11.05;;
52023;SDS011;38038;45.922;13.604;2023-05-07T05:49:14;11.70;;;10.90;;
52023;SDS011;38038;45.922;13.604;2023-05-07T05:51:40;11.73;;;11.02;;
52023;SDS011;38038;45.922;13.604;2023-05-07T05:54:06;11.75;;;10.95;;
52023;SDS011;38038;45.922;13.604;2023-05-07T05:56:32;11.63;;;10.82;;
52023;SDS011;38038;45.922;13.604;2023-05-07T05:58:58;10.55;;;9.82;;
52023;SDS011;38038;45.922;13.604;2023-05-07T06:01:23;13.05;;;12.25;;
52023;SDS011;38038;45.922;13.604;2023-05-07T06:03:49;10.23;;;9.63;;
52023;SDS011;38038;45.922;13.604;2023-05-07T06:06:15;10.98;;;10.38;;
52023;SDS011;38038;45.922;13.604;2023-05-07T06:08:41;11.52;;;10.93;;
52023;SDS011;38038;45.922;13.604;2023-05-07T06:11:07;10.70;;;10.10;;
52023;SDS011;38038;45.922;13.604;2023-05-07T06:13:33;10.50;;;9.90;;
52023;SDS011;38038;45.922;13.604;2023-05-07T06:15:59;15.95;;;14.82;;
52023;SDS011;38038;45.922;13.604;2023-05-07T06:18:24;11.68;;;10.98;;
52023;SDS011;38038;45.922;13.604;2023-05-07T06:20:51;11.23;;;10.63;;
52023;SDS011;38038;45.922;13.604;2023-05-07T06:23:17;12.00;;;11.23;;
52023;SDS011;38038;45.922;13.604;2023-05-07T06:25:48;10.52;;;9.93;;
52023;SDS011;38038;45.922;13.604;2023-05-07T06:28:15;12.05;;;11.45;;
52023;SDS011;38038;45.922;13.604;2023-05-07T06:30:41;10.63;;;10.13;;
52023;SDS011;38038;45.922;13.604;2023-05-07T06:33:06;9.48;;;8.98;;
52023;SDS011;38038;45.922;13.604;2023-05-07T06:35:32;11.20;;;10.60;;
52023;SDS011;38038;45.922;13.604;2023-05-07T06:37:58;11.25;;;10.27;;
52023;SDS011;38038;45.922;13.604;2023-05-07T06:40:24;10.77;;;10.18;;
52023;SDS011;38038;45.922;13.604;2023-05-07T06:42:50;9.93;;;9.15;;
52023;SDS011;38038;45.922;13.604;2023-05-07T06:45:16;11.23;;;10.57;;
52023;SDS011;38038;45.922;13.604;2023-05-07T06:47:41;11.93;;;11.23;;
52023;SDS011;38038;45.922;13.604;2023-05-07T06:50:07;10.07;;;9.55;;
52023;SDS011;38038;45.922;13.604;2023-05-07T06:52:34;9.85;;;9.35;;
52023;SDS011;38038;45.922;13.604;2023-05-07T06:55:00;10.25;;;9.65;;
52023;SDS011;38038;45.922;13.604;2023-05-07T06:57:26;9.88;;;9.27;;
52023;SDS011;38038;45.922;13.604;2023-05-07T06:59:52;10.90;;;10.30;;
52023;SDS011;38038;45.922;13.604;2023-05-07T07:02:17;10.50;;;9.80;;
52023;SDS011;38038;45.922;13.604;2023-05-07T07:04:43;10.45;;;9.85;;
52023;SDS011;38038;45.922;13.604;2023-05-07T07:07:10;9.52;;;8.93;;
52023;SDS011;38038;45.922;13.604;2023-05-07T07:09:35;9.88;;;9.38;;
52023;SDS011;38038;45.922;13.604;2023-05-07T07:12:01;10.20;;;9.60;;
52023;SDS011;38038;45.922;13.604;2023-05-07T07:14:27;11.23;;;10.55;;
52023;SDS011;38038;45.922;13.604;2023-05-07T07:16:52;10.10;;;9.60;;
52023;SDS011;38038;45.922;13.604;2023-05-07T07:19:18;10.80;;;10.13;;
52023;SDS011;38038;45.922;13.604;2023-05-07T07:21:45;9.75;;;9.25;;
52023;SDS011;38038;45.922;13.604;2023-05-07T07:24:11;10.15;;;9.55;;
52023;SDS011;38038;45.922;13.604;2023-05-07T07:26:37;9.88;;;9.35;;
52023;SDS011;38038;45.922;13.604;2023-05-07T07:29:02;10.32;;;9.73;;
52023;SDS011;38038;45.922;13.604;2023-05-07T07:31:28;10.00;;;9.40;;
52023;SDS011;38038;45.922;13.604;2023-05-07T07:33:54;11.55;;;10.85;;
52023;SDS011;38038;45.922;13.604;2023-05-07T07:36:19;10.90;;;10.30;;
52023;SDS011;38038;45.922;13.604;2023-05-07T07:38:45;11.38;;;10.75;;
52023;SDS011;38038;45.922;13.604;2023-05-07T07:41:11;11.27;;;10.20;;
52023;SDS011;38038;45.922;13.604;2023-05-07T07:43:37;10.40;;;9.80;;
52023;SDS011;38038;45.922;13.604;2023-05-07T07:46:02;18.25;;;17.27;;
52023;SDS011;38038;45.922;13.604;2023-05-07T07:48:28;13.25;;;12.55;;
52023;SDS011;38038;45.922;13.604;2023-05-07T07:50:54;12.15;;;11.50;;
52023;SDS011;38038;45.922;13.604;2023-05-07T07:53:19;10.75;;;10.13;;
52023;SDS011;38038;45.922;13.604;2023-05-07T07:55:45;11.10;;;10.50;;
52023;SDS011;38038;45.922;13.604;2023-05-07T07:58:11;11.05;;;10.45;;
52023;SDS011;38038;45.922;13.604;2023-05-07T08:00:36;11.75;;;11.15;;
52023;SDS011;38038;45.922;13.604;2023-05-07T08:03:02;10.75;;;10.15;;
52023;SDS011;38038;45.922;13.604;2023-05-07T08:05:28;12.35;;;11.65;;
52023;SDS011;38038;45.922;13.604;2023-05-07T08:07:54;9.75;;;9.15;;
52023;SDS011;38038;45.922;13.604;2023-05-07T08:10:19;9.43;;;8.93;;
52023;SDS011;38038;45.922;13.604;2023-05-07T08:12:47;10.57;;;9.98;;
52023;SDS011;38038;45.922;13.604;2023-05-07T08:15:13;10.38;;;9.82;;
52023;SDS011;38038;45.922;13.604;2023-05-07T08:17:39;10.65;;;10.05;;
52023;SDS011;38038;45.922;13.604;2023-05-07T08:20:05;12.40;;;11.73;;
52023;SDS011;38038;45.922;13.604;2023-05-07T08:22:32;10.18;;;9.57;;
52023;SDS011;38038;45.922;13.604;2023-05-07T08:24:59;8.95;;;8.38;;
52023;SDS011;38038;45.922;13.604;2023-05-07T08:27:25;10.15;;;9.65;;
52023;SDS011;38038;45.922;13.604;2023-05-07T08:29:51;10.80;;;10.20;;
52023;SDS011;38038;45.922;13.604;2023-05-07T08:32:16;11.27;;;10.68;;
52023;SDS011;38038;45.922;13.604;2023-05-07T08:34:42;12.68;;;11.98;;
52023;SDS011;38038;45.922;13.604;2023-05-07T08:37:08;14.43;;;13.60;;
52023;SDS011;38038;45.922;13.604;2023-05-07T08:39:33;13.77;;;13.00;;
52023;SDS011;38038;45.922;13.604;2023-05-07T08:42:00;14.98;;;14.00;;
52023;SDS011;38038;45.922;13.604;2023-05-07T08:44:27;11.63;;;11.02;;
52023;SDS011;38038;45.922;13.604;2023-05-07T08:46:57;9.85;;;9.32;;
52023;SDS011;38038;45.922;13.604;2023-05-07T08:49:25;11.50;;;10.80;;
52023;SDS011;38038;45.922;13.604;2023-05-07T08:51:52;9.02;;;8.52;;
52023;SDS011;38038;45.922;13.604;2023-05-07T08:54:18;8.45;;;8.02;;
52023;SDS011;38038;45.922;13.604;2023-05-07T08:56:44;9.27;;;8.77;;
52023;SDS011;38038;45.922;13.604;2023-05-07T08:59:10;8.20;;;7.63;;
52023;SDS011;38038;45.922;13.604;2023-05-07T09:01:36;17.08;;;16.25;;
52023;SDS011;38038;45.922;13.604;2023-05-07T09:04:02;9.00;;;8.50;;
52023;SDS011;38038;45.922;13.604;2023-05-07T09:06:27;8.40;;;8.00;;
52023;SDS011;38038;45.922;13.604;2023-05-07T09:08:54;8.60;;;8.20;;
52023;SDS011;38038;45.922;13.604;2023-05-07T09:11:20;8.48;;;8.07;;
52023;SDS011;38038;45.922;13.604;2023-05-07T09:13:47;8.35;;;7.85;;
52023;SDS011;38038;45.922;13.604;2023-05-07T09:16:15;8.48;;;8.07;;
52023;SDS011;38038;45.922;13.604;2023-05-07T09:18:41;8.80;;;8.40;;
52023;SDS011;38038;45.922;13.604;2023-05-07T09:21:09;8.32;;;7.85;;
52023;SDS011;38038;45.922;13.604;2023-05-07T09:23:44;8.88;;;8.10;;
52023;SDS011;38038;45.922;13.604;2023-05-07T09:26:10;11.23;;;10.38;;
52023;SDS011;38038;45.922;13.604;2023-05-07T09:28:39;8.90;;;8.40;;
52023;SDS011;38038;45.922;13.604;2023-05-07T09:31:08;9.40;;;8.90;;
52023;SDS011;38038;45.922;13.604;2023-05-07T09:33:35;11.45;;;10.85;;
52023;SDS011;38038;45.922;13.604;2023-05-07T09:36:02;9.65;;;9.13;;
52023;SDS011;38038;45.922;13.604;2023-05-07T09:38:32;12.90;;;11.80;;
52023;SDS011;38038;45.922;13.604;2023-05-07T09:41:08;8.75;;;8.25;;
52023;SDS011;38038;45.922;13.604;2023-05-07T09:43:36;8.50;;;8.05;;
52023;SDS011;38038;45.922;13.604;2023-05-07T09:46:05;8.90;;;8.45;;
52023;SDS011;38038;45.922;13.604;2023-05-07T09:48:36;8.57;;;8.02;;
52023;SDS011;38038;45.922;13.604;2023-05-07T09:51:06;8.45;;;7.95;;
52023;SDS011;38038;45.922;13.604;2023-05-07T09:53:41;8.23;;;7.80;;
52023;SDS011;38038;45.922;13.604;2023-05-07T09:56:08;11.82;;;11.23;;
52023;SDS011;38038;45.922;13.604;2023-05-07T09:58:36;8.45;;;7.95;;
52023;SDS011;38038;45.922;13.604;2023-05-07T10:01:03;8.77;;;8.35;;
52023;SDS011;38038;45.922;13.604;2023-05-07T10:03:29;8.23;;;7.75;;
52023;SDS011;38038;45.922;13.604;2023-05-07T10:05:58;7.20;;;6.80;;
52023;SDS011;38038;45.922;13.604;2023-05-07T10:08:24;8.25;;;7.75;;
52023;SDS011;38038;45.922;13.604;2023-05-07T10:10:50;9.10;;;8.60;;
52023;SDS011;38038;45.922;13.604;2023-05-07T10:13:16;8.25;;;7.85;;
52023;SDS011;38038;45.922;13.604;2023-05-07T10:15:44;8.52;;;8.13;;
52023;SDS011;38038;45.922;13.604;2023-05-07T10:18:10;11.40;;;10.77;;
52023;SDS011;38038;45.922;13.604;2023-05-07T10:20:38;8.15;;;7.65;;
52023;SDS011;38038;45.922;13.604;2023-05-07T10:23:05;8.13;;;7.72;;
52023;SDS011;38038;45.922;13.604;2023-05-07T10:25:32;10.77;;;10.25;;
52023;SDS011;38038;45.922;13.604;2023-05-07T10:28:01;8.25;;;7.85;;
52023;SDS011;38038;45.922;13.604;2023-05-07T10:33:13;7.55;;;7.05;;
52023;SDS011;38038;45.922;13.604;2023-05-07T10:35:42;8.40;;;7.90;;
52023;SDS011;38038;45.922;13.604;2023-05-07T10:38:11;9.70;;;8.93;;
52023;SDS011;38038;45.922;13.604;2023-05-07T10:40:38;8.20;;;7.80;;
52023;SDS011;38038;45.922;13.604;2023-05-07T10:43:05;8.48;;;8.00;;
52023;SDS011;38038;45.922;13.604;2023-05-07T10:45:31;8.35;;;7.85;;
52023;SDS011;38038;45.922;13.604;2023-05-07T10:50:37;9.23;;;8.73;;
52023;SDS011;38038;45.922;13.604;2023-05-07T10:55:42;8.38;;;7.72;;
52023;SDS011;38038;45.922;13.604;2023-05-07T11:00:47;7.63;;;7.15;;
52023;SDS011;38038;45.922;13.604;2023-05-07T11:03:13;7.50;;;7.10;;
52023;SDS011;38038;45.922;13.604;2023-05-07T11:05:40;7.10;;;6.70;;
52023;SDS011;38038;45.922;13.604;2023-05-07T11:08:07;7.10;;;6.70;;
52023;SDS011;38038;45.922;13.604;2023-05-07T11:10:49;7.38;;;6.97;;
52023;SDS011;38038;45.922;13.604;2023-05-07T11:13:15;7.43;;;7.03;;
52023;SDS011;38038;45.922;13.604;2023-05-07T11:15:42;7.20;;;6.80;;
52023;SDS011;38038;45.922;13.604;2023-05-07T11:18:10;7.07;;;6.68;;
52023;SDS011;38038;45.922;13.604;2023-05-07T11:20:47;7.57;;;7.07;;
52023;SDS011;38038;45.922;13.604;2023-05-07T11:26:08;7.38;;;6.97;;
52023;SDS011;38038;45.922;13.604;2023-05-07T11:28:39;7.55;;;7.03;;
52023;SDS011;38038;45.922;13.604;2023-05-07T11:31:05;7.60;;;7.20;;
52023;SDS011;38038;45.922;13.604;2023-05-07T11:33:31;7.20;;;6.80;;
52023;SDS011;38038;45.922;13.604;2023-05-07T11:35:57;7.47;;;7.07;;
52023;SDS011;38038;45.922;13.604;2023-05-07T11:38:24;7.72;;;7.32;;
52023;SDS011;38038;45.922;13.604;2023-05-07T11:40:56;7.90;;;7.50;;
52023;SDS011;38038;45.922;13.604;2023-05-07T11:43:25;7.13;;;6.72;;
52023;SDS011;38038;45.922;13.604;2023-05-07T11:45:51;7.85;;;7.45;;
52023;SDS011;38038;45.922;13.604;2023-05-07T11:48:17;7.47;;;6.97;;
52023;SDS011;38038;45.922;13.604;2023-05-07T11:50:53;7.70;;;7.30;;
52023;SDS011;38038;45.922;13.604;2023-05-07T11:53:25;6.32;;;6.03;;
52023;SDS011;38038;45.922;13.604;2023-05-07T11:55:55;7.40;;;7.00;;
52023;SDS011;38038;45.922;13.604;2023-05-07T11:58:21;7.03;;;6.63;;
52023;SDS011;38038;45.922;13.604;2023-05-07T12:00:51;7.00;;;6.60;;
52023;SDS011;38038;45.922;13.604;2023-05-07T12:03:17;7.35;;;6.95;;
52023;SDS011;38038;45.922;13.604;2023-05-07T12:05:46;7.05;;;6.65;;
52023;SDS011;38038;45.922;13.604;2023-05-07T12:08:16;7.50;;;7.00;;
52023;SDS011;38038;45.922;13.604;2023-05-07T12:10:43;7.03;;;6.63;;
52023;SDS011;38038;45.922;13.604;2023-05-07T12:13:20;7.40;;;7.00;;
52023;SDS011;38038;45.922;13.604;2023-05-07T12:15:50;7.00;;;6.60;;
52023;SDS011;38038;45.922;13.604;2023-05-07T12:18:20;7.57;;;7.18;;
52023;SDS011;38038;45.922;13.604;2023-05-07T12:20:47;7.00;;;6.60;;
52023;SDS011;38038;45.922;13.604;2023-05-07T12:23:13;7.20;;;6.80;;
52023;SDS011;38038;45.922;13.604;2023-05-07T12:25:40;7.28;;;6.82;;
52023;SDS011;38038;45.922;13.604;2023-05-07T12:28:15;7.28;;;6.85;;
52023;SDS011;38038;45.922;13.604;2023-05-07T12:30:42;8.00;;;7.60;;
52023;SDS011;38038;45.922;13.604;2023-05-07T12:33:09;7.90;;;7.40;;
52023;SDS011;38038;45.922;13.604;2023-05-07T12:35:41;7.20;;;6.80;;
52023;SDS011;38038;45.922;13.604;2023-05-07T12:38:12;7.43;;;7.03;;
52023;SDS011;38038;45.922;13.604;2023-05-07T12:40:42;7.95;;;7.55;;
52023;SDS011;38038;45.922;13.604;2023-05-07T12:45:47;7.05;;;6.65;;
52023;SDS011;38038;45.922;13.604;2023-05-07T12:48:13;7.70;;;7.30;;
52023;SDS011;38038;45.922;13.604;2023-05-07T12:50:39;7.78;;;7.32;;
52023;SDS011;38038;45.922;13.604;2023-05-07T12:53:06;7.95;;;7.55;;
52023;SDS011;38038;45.922;13.604;2023-05-07T12:55:40;7.95;;;7.45;;
52023;SDS011;38038;45.922;13.604;2023-05-07T12:58:20;8.30;;;7.80;;
52023;SDS011;38038;45.922;13.604;2023-05-07T13:00:56;7.28;;;6.88;;
52023;SDS011;38038;45.922;13.604;2023-05-07T13:03:30;7.38;;;6.97;;
52023;SDS011;38038;45.922;13.604;2023-05-07T13:08:38;8.85;;;8.25;;
52023;SDS011;38038;45.922;13.604;2023-05-07T13:11:08;9.52;;;9.02;;
52023;SDS011;38038;45.922;13.604;2023-05-07T13:13:35;8.40;;;8.00;;
52023;SDS011;38038;45.922;13.604;2023-05-07T13:16:02;8.40;;;7.90;;
52023;SDS011;38038;45.922;13.604;2023-05-07T13:18:32;8.93;;;8.43;;
52023;SDS011;38038;45.922;13.604;2023-05-07T13:20:58;8.75;;;8.30;;
52023;SDS011;38038;45.922;13.604;2023-05-07T13:23:25;7.88;;;7.47;;
52023;SDS011;38038;45.922;13.604;2023-05-07T13:25:51;8.00;;;7.60;;
52023;SDS011;38038;45.922;13.604;2023-05-07T13:28:20;7.93;;;7.53;;
52023;SDS011;38038;45.922;13.604;2023-05-07T13:30:47;8.95;;;8.02;;
52023;SDS011;38038;45.922;13.604;2023-05-07T13:33:13;9.23;;;8.63;;
52023;SDS011;38038;45.922;13.604;2023-05-07T13:35:39;9.20;;;8.60;;
52023;SDS011;38038;45.922;13.604;2023-05-07T13:38:05;8.85;;;8.32;;
52023;SDS011;38038;45.922;13.604;2023-05-07T13:40:31;9.77;;;9.02;;
52023;SDS011;38038;45.922;13.604;2023-05-07T13:42:57;9.27;;;8.77;;
52023;SDS011;38038;45.922;13.604;2023-05-07T13:45:24;9.40;;;8.80;;
52023;SDS011;38038;45.922;13.604;2023-05-07T13:47:51;9.32;;;8.63;;
52023;SDS011;38038;45.922;13.604;2023-05-07T13:50:16;9.75;;;9.25;;
52023;SDS011;38038;45.922;13.604;2023-05-07T13:52:43;8.63;;;7.93;;
52023;SDS011;38038;45.922;13.604;2023-05-07T13:55:15;8.18;;;7.68;;
52023;SDS011;38038;45.922;13.604;2023-05-07T13:57:42;10.82;;;10.02;;
52023;SDS011;38038;45.922;13.604;2023-05-07T14:00:08;9.80;;;9.13;;
52023;SDS011;38038;45.922;13.604;2023-05-07T14:02:34;10.82;;;10.23;;
52023;SDS011;38038;45.922;13.604;2023-05-07T14:05:00;12.35;;;11.68;;
52023;SDS011;38038;45.922;13.604;2023-05-07T14:07:26;11.07;;;10.48;;
52023;SDS011;38038;45.922;13.604;2023-05-07T14:09:51;9.95;;;9.45;;
52023;SDS011;38038;45.922;13.604;2023-05-07T14:12:17;12.82;;;12.15;;
52023;SDS011;38038;45.922;13.604;2023-05-07T14:14:43;10.18;;;9.68;;
52023;SDS011;38038;45.922;13.604;2023-05-07T14:17:08;10.73;;;10.13;;
52023;SDS011;38038;45.922;13.604;2023-05-07T14:19:34;11.75;;;11.15;;
52023;SDS011;38038;45.922;13.604;2023-05-07T14:22:00;12.95;;;12.05;;
52023;SDS011;38038;45.922;13.604;2023-05-07T14:24:25;15.75;;;14.65;;
52023;SDS011;38038;45.922;13.604;2023-05-07T14:26:51;12.23;;;11.52;;
52023;SDS011;38038;45.922;13.604;2023-05-07T14:29:17;15.27;;;14.48;;
52023;SDS011;38038;45.922;13.604;2023-05-07T14:31:44;10.13;;;9.63;;
52023;SDS011;38038;45.922;13.604;2023-05-07T14:34:10;12.43;;;11.77;;
52023;SDS011;38038;45.922;13.604;2023-05-07T14:36:36;12.43;;;11.80;;
52023;SDS011;38038;45.922;13.604;2023-05-07T14:39:03;11.48;;;10.80;;
52023;SDS011;38038;45.922;13.604;2023-05-07T14:41:28;13.35;;;12.65;;
52023;SDS011;38038;45.922;13.604;2023-05-07T14:43:54;12.65;;;12.05;;
52023;SDS011;38038;45.922;13.604;2023-05-07T14:46:20;10.40;;;9.75;;
52023;SDS011;38038;45.922;13.604;2023-05-07T14:48:46;9.15;;;8.65;;
52023;SDS011;38038;45.922;13.604;2023-05-07T14:51:12;11.82;;;11.15;;
52023;SDS011;38038;45.922;13.604;2023-05-07T14:53:38;10.05;;;9.55;;
52023;SDS011;38038;45.922;13.604;2023-05-07T14:56:06;12.13;;;11.43;;
52023;SDS011;38038;45.922;13.604;2023-05-07T14:58:31;10.30;;;9.80;;